Time;durP1;ratioP1;P1;durP2;ratioP2;P2;SDS_P1;SDS_P2;PMS_P1;PMS_P2;Temp;Humidity;BMP_temperature;BMP_pressure;BME280_temperature;BME280_humidity;BME280_pressure;Samples;Min_cycle;Max_cycle;Signal;HPM_P1;HPM_P2
2021/06/13 00:00:35;;;;;;;1.90;1.80;;;25.20;45.20;;;;;;4952964;28;20272;-42
2021/06/13 00:03:01;;;;;;;2.08;1.88;;;25.20;45.20;;;;;;4962125;28;20606;-41
2021/06/13 00:05:27;;;;;;;1.85;1.75;;;25.20;45.20;;;;;;4969746;28;20339;-41
2021/06/13 00:07:53;;;;;;;2.20;1.95;;;25.20;45.10;;;;;;4952477;28;20210;-42
2021/06/13 00:10:20;;;;;;;2.33;1.70;;;25.20;45.20;;;;;;4953078;28;20232;-41
2021/06/13 00:12:46;;;;;;;1.90;1.80;;;25.20;45.20;;;;;;4947346;28;20318;-46
2021/06/13 00:15:11;;;;;;;2.05;1.95;;;25.20;45.30;;;;;;4942849;28;20212;-46
2021/06/13 00:17:37;;;;;;;2.00;1.90;;;25.20;45.20;;;;;;4953351;28;20209;-42
2021/06/13 00:20:03;;;;;;;1.95;1.80;;;25.20;45.10;;;;;;4953121;28;20616;-47
2021/06/13 00:22:29;;;;;;;1.90;1.80;;;25.20;45.10;;;;;;4952138;28;20224;-46
2021/06/13 00:24:55;;;;;;;1.50;1.40;;;25.20;45.10;;;;;;4963307;28;20209;-42
2021/06/13 00:27:21;;;;;;;2.17;2.08;;;25.20;45.20;;;;;;4955947;28;20205;-41
2021/06/13 00:29:47;;;;;;;1.80;1.70;;;25.20;45.10;;;;;;4951723;28;20229;-44
2021/06/13 00:32:13;;;;;;;1.92;1.83;;;25.20;45.10;;;;;;4953099;28;20209;-42
2021/06/13 00:34:39;;;;;;;2.95;1.77;;;25.20;45.10;;;;;;4965476;28;20233;-42
2021/06/13 00:37:05;;;;;;;2.15;2.00;;;25.20;45.00;;;;;;4951312;28;20212;-41
2021/06/13 00:39:31;;;;;;;1.92;1.83;;;25.20;45.00;;;;;;4951266;28;20268;-41
2021/06/13 00:41:57;;;;;;;2.08;1.98;;;25.20;45.00;;;;;;4951846;28;20259;-44
2021/06/13 00:44:23;;;;;;;1.85;1.75;;;25.20;45.00;;;;;;4953609;28;20236;-42
2021/06/13 00:46:49;;;;;;;1.92;1.83;;;25.20;45.00;;;;;;4955502;28;20259;-42
2021/06/13 00:49:15;;;;;;;1.63;1.52;;;25.20;45.00;;;;;;4966746;28;20216;-43
2021/06/13 00:51:41;;;;;;;2.55;1.73;;;25.20;45.10;;;;;;4951219;28;20666;-43
2021/06/13 00:54:07;;;;;;;2.47;1.80;;;25.20;45.00;;;;;;4952899;28;20233;-41
2021/06/13 00:56:33;;;;;;;2.00;1.90;;;25.20;45.00;;;;;;4964878;28;20279;-41
2021/06/13 00:58:58;;;;;;;2.13;1.92;;;25.20;45.10;;;;;;4952724;28;20205;-41
2021/06/13 01:01:24;;;;;;;2.03;1.92;;;25.20;45.10;;;;;;4961358;28;20227;-41
2021/06/13 01:03:50;;;;;;;1.85;1.70;;;25.20;45.10;;;;;;4954175;28;20619;-41
2021/06/13 01:06:16;;;;;;;2.40;1.88;;;25.20;45.10;;;;;;4954555;28;20212;-44
2021/06/13 01:08:42;;;;;;;2.40;1.83;;;25.20;45.10;;;;;;4952141;28;20256;-43
2021/06/13 01:11:08;;;;;;;2.03;1.92;;;25.10;45.00;;;;;;4951205;28;20636;-44
2021/06/13 01:13:34;;;;;;;2.08;1.70;;;25.10;45.00;;;;;;4951745;28;20209;-41
2021/06/13 01:16:00;;;;;;;1.95;1.85;;;25.20;45.00;;;;;;4962971;28;20217;-43
2021/06/13 01:18:26;;;;;;;2.22;2.08;;;25.20;45.00;;;;;;4960511;28;20200;-44
2021/06/13 01:20:52;;;;;;;2.00;1.90;;;25.20;45.10;;;;;;4955532;28;20316;-42
2021/06/13 01:23:18;;;;;;;2.05;1.85;;;25.20;45.10;;;;;;4951251;28;20216;-41
2021/06/13 01:25:44;;;;;;;2.30;2.20;;;25.20;45.00;;;;;;4961546;28;20200;-46
2021/06/13 01:28:10;;;;;;;1.83;1.73;;;25.20;45.00;;;;;;4951968;28;20223;-43
2021/06/13 01:30:36;;;;;;;2.13;2.00;;;25.20;45.00;;;;;;4955514;28;20251;-45
2021/06/13 01:33:02;;;;;;;2.00;1.90;;;25.20;44.90;;;;;;4950660;28;20643;-46
2021/06/13 01:35:28;;;;;;;1.95;1.85;;;25.20;45.00;;;;;;4962290;28;20209;-43
2021/06/13 01:37:54;;;;;;;1.88;1.77;;;25.20;45.00;;;;;;4967532;28;20208;-46
2021/06/13 01:40:20;;;;;;;1.80;1.70;;;25.20;45.00;;;;;;4955670;28;20224;-47
2021/06/13 01:42:46;;;;;;;2.13;1.85;;;25.10;44.80;;;;;;4951199;28;20208;-48
2021/06/13 01:45:12;;;;;;;2.60;2.00;;;25.20;44.90;;;;;;4961324;28;20259;-45
2021/06/13 01:47:38;;;;;;;2.00;1.80;;;25.20;45.00;;;;;;4970389;28;20212;-45
2021/06/13 01:50:04;;;;;;;2.00;1.90;;;25.20;45.00;;;;;;4963905;28;20701;-44
2021/06/13 01:52:30;;;;;;;2.20;2.00;;;25.20;45.00;;;;;;4967868;28;20201;-46
2021/06/13 01:54:56;;;;;;;1.90;1.80;;;25.20;45.00;;;;;;4962296;28;20197;-41
2021/06/13 01:57:22;;;;;;;2.35;2.15;;;25.20;45.00;;;;;;4972057;28;20263;-41
2021/06/13 01:59:47;;;;;;;1.67;1.58;;;25.20;45.00;;;;;;4959981;28;20714;-41
2021/06/13 02:02:13;;;;;;;2.05;1.80;;;25.20;45.00;;;;;;4961380;28;20202;-42
2021/06/13 02:04:39;;;;;;;1.83;1.73;;;25.20;45.00;;;;;;4960247;28;20205;-42
2021/06/13 02:07:05;;;;;;;2.10;1.90;;;25.20;44.90;;;;;;4973987;28;20204;-41
2021/06/13 02:09:31;;;;;;;1.90;1.80;;;25.20;45.00;;;;;;4960916;28;20242;-41
2021/06/13 02:11:57;;;;;;;1.98;1.88;;;25.20;45.00;;;;;;4969322;28;20666;-42
2021/06/13 02:14:23;;;;;;;2.15;1.95;;;25.20;45.00;;;;;;4958163;28;20243;-41
2021/06/13 02:16:49;;;;;;;2.10;1.80;;;25.20;45.00;;;;;;4959463;28;20342;-41
2021/06/13 02:19:15;;;;;;;2.20;1.80;;;25.20;44.90;;;;;;4956964;28;20225;-46
2021/06/13 02:21:41;;;;;;;2.58;1.67;;;25.20;44.90;;;;;;4970491;28;20224;-48
2021/06/13 02:24:07;;;;;;;2.28;2.10;;;25.20;44.90;;;;;;4956981;28;20540;-46
2021/06/13 02:26:33;;;;;;;2.53;1.95;;;25.20;45.00;;;;;;4970958;28;20208;-46
2021/06/13 02:28:59;;;;;;;2.65;2.00;;;25.10;44.90;;;;;;4953579;28;20276;-41
2021/06/13 02:31:25;;;;;;;2.35;1.90;;;25.20;45.00;;;;;;4966703;28;20204;-41
2021/06/13 02:33:51;;;;;;;2.40;2.10;;;25.20;45.00;;;;;;4965081;28;20966;-40
2021/06/13 02:36:17;;;;;;;2.15;2.03;;;25.20;45.00;;;;;;4966428;28;20204;-44
2021/06/13 02:38:43;;;;;;;2.53;1.90;;;25.20;45.10;;;;;;4968919;28;20201;-44
2021/06/13 02:41:09;;;;;;;2.55;2.00;;;25.20;45.10;;;;;;4954115;28;20233;-41
2021/06/13 02:43:35;;;;;;;3.35;2.28;;;25.20;45.10;;;;;;4960296;28;20220;-41
2021/06/13 02:46:01;;;;;;;2.22;2.00;;;25.20;45.10;;;;;;4957950;28;20209;-41
2021/06/13 02:48:26;;;;;;;2.13;1.95;;;25.10;45.10;;;;;;4955458;28;20212;-41
2021/06/13 02:50:52;;;;;;;3.17;1.73;;;25.20;45.20;;;;;;4968378;28;20594;-41
2021/06/13 02:53:18;;;;;;;2.35;1.98;;;25.20;45.10;;;;;;4956991;28;20221;-41
2021/06/13 02:55:44;;;;;;;2.72;2.40;;;25.20;45.10;;;;;;4959682;28;20198;-42
2021/06/13 02:58:10;;;;;;;2.03;1.92;;;25.10;45.10;;;;;;4962854;28;20251;-44
2021/06/13 03:00:36;;;;;;;3.53;2.20;;;25.10;45.20;;;;;;4957003;28;20669;-41
2021/06/13 03:03:02;;;;;;;3.90;2.00;;;25.20;45.90;;;;;;4963476;28;20201;-41
2021/06/13 03:05:28;;;;;;;2.28;2.08;;;25.10;45.20;;;;;;4970062;28;20257;-43
2021/06/13 03:07:54;;;;;;;2.50;2.13;;;25.10;45.20;;;;;;4965581;28;20209;-41
2021/06/13 03:10:20;;;;;;;2.00;1.90;;;25.10;45.20;;;;;;4971518;28;20244;-41
2021/06/13 03:12:46;;;;;;;1.92;1.83;;;25.10;45.20;;;;;;4967601;28;20319;-41
2021/06/13 03:15:12;;;;;;;2.20;2.00;;;25.10;45.30;;;;;;4956916;28;20212;-41
2021/06/13 03:17:38;;;;;;;2.10;1.90;;;25.10;45.30;;;;;;4942814;28;20209;-43
2021/06/13 03:20:04;;;;;;;2.28;2.08;;;25.10;45.20;;;;;;4953810;28;20221;-41
2021/06/13 03:22:30;;;;;;;1.80;1.70;;;25.10;45.20;;;;;;4959194;28;20209;-41
2021/06/13 03:24:56;;;;;;;2.60;2.00;;;25.10;45.20;;;;;;4955399;28;20253;-43
2021/06/13 03:27:22;;;;;;;3.97;2.15;;;25.10;45.30;;;;;;4952654;28;20216;-42
2021/06/13 03:29:48;;;;;;;1.83;1.73;;;25.10;45.30;;;;;;4971957;28;20252;-41
2021/06/13 03:32:14;;;;;;;2.00;1.80;;;25.10;45.30;;;;;;4962550;28;20638;-41
2021/06/13 03:34:40;;;;;;;2.05;1.83;;;25.10;45.40;;;;;;4965560;28;20197;-41
2021/06/13 03:37:06;;;;;;;2.22;1.90;;;25.10;45.30;;;;;;4955932;28;20209;-41
2021/06/13 03:39:33;;;;;;;2.20;2.00;;;25.10;45.30;;;;;;4964976;28;20279;-41
2021/06/13 03:41:59;;;;;;;2.72;2.00;;;25.10;45.30;;;;;;4951782;28;20247;-43
2021/06/13 03:44:26;;;;;;;2.30;2.10;;;25.10;45.30;;;;;;4952186;28;20209;-41
2021/06/13 03:46:52;;;;;;;2.40;2.00;;;25.10;45.40;;;;;;4965829;28;20197;-42
2021/06/13 03:49:18;;;;;;;2.45;2.20;;;25.10;45.40;;;;;;4953568;28;20308;-41
2021/06/13 03:51:45;;;;;;;2.10;1.88;;;25.10;45.40;;;;;;4954081;28;20208;-41
2021/06/13 03:54:11;;;;;;;2.13;1.80;;;25.10;45.40;;;;;;4965507;28;20208;-41
2021/06/13 03:56:38;;;;;;;2.33;2.13;;;25.10;45.50;;;;;;4969434;28;20292;-41
2021/06/13 03:59:04;;;;;;;1.98;1.88;;;25.10;45.40;;;;;;4959869;28;20225;-41
2021/06/13 04:01:31;;;;;;;2.65;1.77;;;25.10;45.40;;;;;;4966373;28;20312;-41
2021/06/13 04:03:57;;;;;;;1.70;1.60;;;25.10;45.40;;;;;;4965538;28;20209;-47
2021/06/13 04:06:24;;;;;;;2.47;1.95;;;25.10;45.50;;;;;;4969595;28;20204;-46
2021/06/13 04:08:50;;;;;;;2.83;2.58;;;25.10;45.20;;;;;;4965961;28;20228;-44
2021/06/13 04:11:17;;;;;;;2.85;2.03;;;25.20;45.10;;;;;;4972189;28;20207;-44
2021/06/13 04:13:43;;;;;;;3.05;2.75;;;25.10;45.30;;;;;;4962407;28;20284;-41
2021/06/13 04:16:09;;;;;;;2.20;2.00;;;25.20;45.80;;;;;;4952491;28;20209;-41
2021/06/13 04:18:36;;;;;;;2.20;2.05;;;25.20;45.80;;;;;;4960387;28;20220;-41
2021/06/13 04:21:02;;;;;;;2.03;1.90;;;25.10;45.80;;;;;;4953440;28;20328;-44
2021/06/13 04:23:29;;;;;;;2.15;2.00;;;25.10;45.80;;;;;;4967473;28;20218;-41
2021/06/13 04:25:55;;;;;;;2.13;1.83;;;25.20;45.80;;;;;;4964070;28;20210;-41
2021/06/13 04:28:22;;;;;;;4.25;2.00;;;25.10;45.70;;;;;;4961457;28;20201;-41
2021/06/13 04:30:48;;;;;;;2.22;1.80;;;25.10;45.90;;;;;;4960457;28;20287;-41
2021/06/13 04:33:14;;;;;;;2.90;2.22;;;25.10;45.80;;;;;;4964610;28;20207;-42
2021/06/13 04:35:41;;;;;;;4.05;1.95;;;25.10;45.90;;;;;;4955693;28;20201;-41
2021/06/13 04:38:07;;;;;;;2.50;2.08;;;25.10;45.80;;;;;;4954836;28;20217;-41
2021/06/13 04:40:34;;;;;;;2.28;2.08;;;25.10;45.90;;;;;;4950711;28;20236;-48
2021/06/13 04:43:00;;;;;;;2.85;2.05;;;25.10;45.80;;;;;;4964721;28;20200;-46
2021/06/13 04:45:27;;;;;;;3.20;2.20;;;25.10;45.80;;;;;;4953546;28;20205;-46
2021/06/13 04:47:54;;;;;;;2.70;1.95;;;25.10;45.80;;;;;;4951188;28;20205;-43
2021/06/13 04:50:20;;;;;;;2.25;2.00;;;25.10;45.80;;;;;;4955971;28;20272;-48
2021/06/13 04:52:46;;;;;;;1.75;1.65;;;25.10;45.90;;;;;;4951850;28;20213;-48
2021/06/13 04:55:13;;;;;;;2.33;1.95;;;25.20;45.90;;;;;;4952602;28;20205;-44
2021/06/13 04:57:40;;;;;;;2.17;1.98;;;25.20;45.90;;;;;;4956114;28;20213;-42
2021/06/13 05:00:06;;;;;;;3.42;1.75;;;25.10;45.80;;;;;;4952784;28;20328;-47
2021/06/13 05:02:33;;;;;;;4.15;2.10;;;25.10;45.80;;;;;;4951167;28;20328;-47
2021/06/13 05:05:00;;;;;;;2.97;1.80;;;25.20;45.90;;;;;;4959174;28;20227;-42
2021/06/13 05:07:26;;;;;;;2.03;1.83;;;25.10;45.80;;;;;;4952652;28;20264;-42
2021/06/13 05:09:52;;;;;;;2.92;2.30;;;25.20;45.80;;;;;;4956314;28;20314;-45
2021/06/13 05:12:19;;;;;;;1.85;1.75;;;25.10;45.80;;;;;;4955393;28;20220;-47
2021/06/13 05:14:45;;;;;;;2.63;1.95;;;25.20;45.90;;;;;;4956370;28;20193;-44
2021/06/13 05:17:12;;;;;;;2.88;1.95;;;25.10;45.80;;;;;;4955782;28;20200;-45
2021/06/13 05:19:38;;;;;;;3.53;2.40;;;25.20;45.80;;;;;;4957149;28;20225;-43
2021/06/13 05:22:05;;;;;;;1.83;1.60;;;25.10;45.80;;;;;;4960453;28;20232;-43
2021/06/13 05:24:31;;;;;;;3.33;1.90;;;25.10;45.80;;;;;;4963256;28;20216;-45
2021/06/13 05:26:57;;;;;;;2.10;1.90;;;25.20;45.90;;;;;;4962262;28;20210;-45
2021/06/13 05:29:24;;;;;;;3.00;2.08;;;25.20;45.90;;;;;;4955628;28;20225;-43
2021/06/13 05:31:50;;;;;;;1.85;1.75;;;25.10;45.70;;;;;;4975341;28;20219;-46
2021/06/13 05:34:17;;;;;;;2.80;2.00;;;25.10;45.80;;;;;;4958321;28;20201;-42
2021/06/13 05:36:43;;;;;;;3.53;1.98;;;25.10;45.80;;;;;;4957204;28;20320;-46
2021/06/13 05:39:10;;;;;;;2.10;1.85;;;25.20;45.90;;;;;;4961257;28;20239;-43
2021/06/13 05:41:36;;;;;;;2.47;2.00;;;25.20;45.80;;;;;;4956983;28;20228;-47
2021/06/13 05:44:03;;;;;;;2.83;1.75;;;25.10;45.90;;;;;;4974254;28;20302;-41
2021/06/13 05:46:29;;;;;;;3.25;1.88;;;25.20;45.90;;;;;;4957343;28;20859;-48
2021/06/13 05:48:56;;;;;;;3.92;2.25;;;25.20;45.90;;;;;;4964700;28;20307;-42
2021/06/13 05:51:22;;;;;;;2.90;1.95;;;25.20;45.90;;;;;;4958683;28;20289;-43
2021/06/13 05:53:48;;;;;;;2.20;2.00;;;25.20;45.90;;;;;;4955769;28;20217;-46
2021/06/13 05:56:15;;;;;;;4.40;1.70;;;25.20;45.80;;;;;;4967259;28;20208;-46
2021/06/13 05:58:41;;;;;;;2.90;1.90;;;25.20;45.90;;;;;;4967933;28;20304;-47
2021/06/13 06:01:08;;;;;;;2.72;2.00;;;25.20;45.90;;;;;;4962090;28;20624;-45
2021/06/13 06:03:35;;;;;;;2.00;1.80;;;25.20;45.80;;;;;;4955571;28;20205;-41
2021/06/13 06:06:01;;;;;;;2.30;2.10;;;25.20;45.90;;;;;;4969338;28;20215;-43
2021/06/13 06:08:27;;;;;;;2.25;2.05;;;25.10;45.80;;;;;;4972420;28;20227;-42
2021/06/13 06:10:54;;;;;;;2.47;2.15;;;25.20;45.90;;;;;;4958044;28;20219;-43
2021/06/13 06:13:20;;;;;;;2.83;2.15;;;25.20;45.90;;;;;;4955123;28;20213;-44
2021/06/13 06:15:47;;;;;;;1.83;1.73;;;25.20;45.90;;;;;;4958714;28;20669;-41
2021/06/13 06:18:13;;;;;;;1.98;1.73;;;25.10;45.70;;;;;;4969199;28;20735;-41
2021/06/13 06:20:40;;;;;;;2.22;1.77;;;25.20;45.90;;;;;;4954714;28;20205;-44
2021/06/13 06:23:06;;;;;;;2.05;1.88;;;25.20;45.80;;;;;;4961336;28;20209;-43
2021/06/13 06:25:33;;;;;;;2.85;1.83;;;25.20;45.80;;;;;;4951220;28;20569;-43
2021/06/13 06:27:59;;;;;;;2.20;1.73;;;25.20;45.90;;;;;;4966433;28;20226;-44
2021/06/13 06:30:25;;;;;;;1.83;1.63;;;25.20;45.90;;;;;;4958982;28;20213;-44
2021/06/13 06:32:52;;;;;;;1.98;1.80;;;25.20;45.90;;;;;;4956318;28;20293;-44
2021/06/13 06:35:19;;;;;;;2.42;1.83;;;25.10;45.80;;;;;;4974017;28;20560;-45
2021/06/13 06:37:45;;;;;;;2.05;1.85;;;25.10;45.70;;;;;;4963952;28;20204;-41
2021/06/13 06:40:12;;;;;;;2.75;1.90;;;25.20;45.90;;;;;;4954134;28;20239;-49
2021/06/13 06:42:38;;;;;;;2.50;1.70;;;25.20;46.00;;;;;;4954828;28;20232;-46
2021/06/13 06:45:05;;;;;;;2.78;1.95;;;25.20;45.90;;;;;;4955802;28;20209;-48
2021/06/13 06:47:31;;;;;;;2.97;2.20;;;25.20;45.90;;;;;;4962466;28;20208;-48
2021/06/13 06:49:58;;;;;;;1.70;1.60;;;25.20;45.60;;;;;;4965387;28;20231;-47
2021/06/13 06:52:24;;;;;;;1.90;1.80;;;25.20;45.20;;;;;;4965930;28;20207;-45
2021/06/13 06:54:51;;;;;;;2.78;1.90;;;25.20;45.50;;;;;;4968146;28;20219;-45
2021/06/13 06:57:17;;;;;;;2.47;1.70;;;25.20;45.90;;;;;;4973512;28;20205;-47
2021/06/13 06:59:44;;;;;;;2.30;1.95;;;25.10;45.80;;;;;;4968138;28;20237;-45
2021/06/13 07:02:10;;;;;;;3.58;2.00;;;25.20;46.00;;;;;;4968102;28;20661;-43
2021/06/13 07:04:37;;;;;;;2.72;2.10;;;25.20;46.20;;;;;;4969272;28;20562;-41
2021/06/13 07:07:03;;;;;;;2.63;1.95;;;25.20;46.50;;;;;;4958146;28;20582;-42
2021/06/13 07:09:30;;;;;;;2.97;1.90;;;25.20;46.50;;;;;;4968473;28;20568;-45
2021/06/13 07:11:56;;;;;;;3.45;2.10;;;25.20;46.30;;;;;;4956902;28;20577;-41
2021/06/13 07:14:23;;;;;;;2.40;2.20;;;25.20;46.50;;;;;;4961525;28;20201;-41
2021/06/13 07:16:49;;;;;;;6.75;2.42;;;25.20;46.60;;;;;;4952827;28;20235;-46
2021/06/13 07:19:15;;;;;;;3.72;2.10;;;25.20;46.70;;;;;;4955165;28;20243;-43
2021/06/13 07:21:43;;;;;;;3.67;2.22;;;25.20;46.90;;;;;;4958238;28;20257;-42
2021/06/13 07:24:10;;;;;;;5.63;3.08;;;25.20;47.20;;;;;;4967597;28;20236;-44
2021/06/13 07:26:36;;;;;;;11.13;2.75;;;25.30;47.20;;;;;;4959321;28;20205;-43
2021/06/13 07:29:03;;;;;;;9.43;3.45;;;25.20;47.80;;;;;;4949586;28;20217;-41
2021/06/13 07:31:29;;;;;;;11.15;3.30;;;25.20;48.60;;;;;;4950460;28;20197;-43
2021/06/13 07:33:56;;;;;;;14.27;2.90;;;25.30;48.00;;;;;;4947521;29;20207;-41
2021/06/13 07:36:22;;;;;;;4.18;2.58;;;25.30;47.20;;;;;;4935820;29;20213;-44
2021/06/13 07:38:49;;;;;;;9.43;3.55;;;25.40;46.80;;;;;;4945817;29;20223;-41
2021/06/13 07:41:15;;;;;;;11.73;3.20;;;25.40;47.60;;;;;;4950151;28;20240;-40
2021/06/13 07:43:42;;;;;;;11.07;3.47;;;25.40;48.80;;;;;;4946548;29;20202;-41
2021/06/13 07:46:08;;;;;;;8.73;3.80;;;25.40;49.60;;;;;;4950715;28;20211;-41
2021/06/13 07:48:35;;;;;;;9.32;3.65;;;25.30;48.90;;;;;;4951845;28;20221;-40
2021/06/13 07:51:01;;;;;;;7.72;3.03;;;25.30;49.20;;;;;;4947459;28;20213;-44
2021/06/13 07:53:28;;;;;;;6.45;3.50;;;25.30;50.00;;;;;;4938337;28;20209;-42
2021/06/13 07:55:54;;;;;;;7.00;3.17;;;25.30;49.90;;;;;;4955890;28;20278;-42
2021/06/13 07:58:21;;;;;;;7.53;3.50;;;25.20;49.10;;;;;;4960004;28;20233;-41
2021/06/13 08:00:50;;;;;;;8.10;4.63;;;25.30;49.00;;;;;;4967185;28;20197;-45
2021/06/13 08:03:16;;;;;;;7.03;4.07;;;23.60;36.80;;;;;;4952763;28;20681;-40
2021/06/13 08:05:43;;;;;;;6.47;3.50;;;21.30;38.70;;;;;;4961073;28;20201;-40
2021/06/13 08:08:10;;;;;;;3.95;3.55;;;22.30;43.60;;;;;;4961791;28;20256;-39
2021/06/13 08:10:36;;;;;;;4.68;3.13;;;23.30;43.10;;;;;;4953021;28;20205;-41
2021/06/13 08:13:03;;;;;;;6.03;3.58;;;23.80;42.70;;;;;;4954620;28;20664;-41
2021/06/13 08:15:30;;;;;;;5.35;3.15;;;24.20;43.10;;;;;;4952183;28;20216;-40
2021/06/13 08:17:56;;;;;;;7.25;3.30;;;24.40;43.30;;;;;;4962878;28;20283;-40
2021/06/13 08:20:23;;;;;;;4.53;2.88;;;24.50;43.70;;;;;;4962012;28;20215;-42
2021/06/13 08:22:49;;;;;;;5.70;3.47;;;24.60;43.90;;;;;;4951428;28;20685;-42
2021/06/13 08:25:16;;;;;;;4.28;2.95;;;24.70;43.10;;;;;;4957709;28;20575;-43
2021/06/13 08:27:42;;;;;;;4.65;2.83;;;24.70;43.50;;;;;;4952607;28;20602;-40
2021/06/13 08:30:09;;;;;;;5.35;3.20;;;24.70;44.60;;;;;;4964146;28;20573;-40
2021/06/13 08:32:35;;;;;;;4.80;2.60;;;24.80;43.60;;;;;;4951921;28;20333;-40
2021/06/13 08:35:02;;;;;;;3.38;2.75;;;24.80;44.30;;;;;;4966371;28;20203;-41
2021/06/13 08:37:28;;;;;;;5.65;2.90;;;24.80;44.70;;;;;;4966970;28;20304;-43
2021/06/13 08:39:54;;;;;;;4.07;3.13;;;24.80;43.70;;;;;;4954891;28;20364;-41
2021/06/13 08:42:21;;;;;;;2.92;2.60;;;24.80;43.00;;;;;;4961387;28;20237;-42
2021/06/13 08:44:47;;;;;;;3.90;3.08;;;24.90;44.10;;;;;;4954966;28;20211;-43
2021/06/13 08:47:14;;;;;;;3.65;2.85;;;24.90;42.90;;;;;;4944860;28;20212;-40
2021/06/13 08:49:41;;;;;;;3.15;2.83;;;24.90;42.30;;;;;;4950620;28;20627;-47
2021/06/13 08:52:07;;;;;;;3.78;2.95;;;24.90;42.50;;;;;;4941017;28;20243;-45
2021/06/13 08:54:34;;;;;;;4.78;3.50;;;24.90;42.90;;;;;;4947187;28;20640;-43
2021/06/13 08:57:00;;;;;;;3.08;2.80;;;24.80;38.50;;;;;;4949142;28;20711;-42
2021/06/13 08:59:27;;;;;;;3.05;2.65;;;24.70;41.60;;;;;;4944700;28;20288;-40
2021/06/13 09:01:53;;;;;;;4.40;2.50;;;24.80;42.50;;;;;;4949505;28;20677;-41
2021/06/13 09:04:20;;;;;;;3.53;2.38;;;24.80;41.70;;;;;;4950646;28;20672;-43
2021/06/13 09:06:47;;;;;;;2.80;2.05;;;25.00;42.00;;;;;;4939340;28;20287;-47
2021/06/13 09:09:13;;;;;;;3.90;2.67;;;25.00;42.00;;;;;;4949028;28;20308;-41
2021/06/13 09:11:42;;;;;;;6.97;3.17;;;25.00;40.30;;;;;;4949556;28;20217;-39
2021/06/13 09:14:09;;;;;;;3.28;2.55;;;25.00;40.10;;;;;;4944851;29;20718;-42
2021/06/13 09:16:36;;;;;;;2.70;2.38;;;25.00;40.50;;;;;;4941207;28;20289;-43
2021/06/13 09:19:02;;;;;;;4.40;2.50;;;25.00;39.00;;;;;;4942574;29;20221;-47
2021/06/13 09:21:29;;;;;;;4.00;2.60;;;25.00;37.90;;;;;;4941305;28;20234;-45
2021/06/13 09:23:55;;;;;;;3.20;2.67;;;25.00;37.60;;;;;;4943359;29;20640;-39
2021/06/13 09:26:22;;;;;;;2.75;2.22;;;25.00;37.10;;;;;;4943972;28;20208;-39
2021/06/13 09:28:49;;;;;;;2.70;2.22;;;25.00;36.60;;;;;;4956707;28;20239;-52
2021/06/13 09:31:15;;;;;;;3.85;2.40;;;25.00;39.00;;;;;;4952017;28;20200;-39
2021/06/13 09:33:42;;;;;;;3.05;2.30;;;25.00;39.00;;;;;;4949224;28;20218;-47
2021/06/13 09:36:08;;;;;;;2.40;2.20;;;25.00;39.60;;;;;;4948124;29;20635;-40
2021/06/13 09:38:36;;;;;;;3.63;2.40;;;25.00;41.80;;;;;;4952378;28;20728;-40
2021/06/13 09:41:02;;;;;;;3.38;2.42;;;25.00;42.60;;;;;;4961797;28;20211;-39
2021/06/13 09:43:29;;;;;;;2.60;2.40;;;25.00;43.10;;;;;;4955268;28;20280;-38
2021/06/13 09:45:55;;;;;;;3.30;2.90;;;25.00;43.30;;;;;;4949721;28;20284;-50
2021/06/13 09:48:22;;;;;;;5.25;2.83;;;25.00;43.80;;;;;;4951872;28;20340;-39
2021/06/13 09:50:48;;;;;;;2.90;2.58;;;25.00;43.80;;;;;;4952347;28;20207;-46
2021/06/13 09:53:15;;;;;;;3.30;2.60;;;25.00;43.80;;;;;;4952056;28;20209;-42
2021/06/13 09:55:41;;;;;;;5.43;2.92;;;25.00;43.90;;;;;;4951092;28;20206;-46
2021/06/13 09:58:08;;;;;;;2.63;2.40;;;25.00;43.90;;;;;;4951566;28;20283;-40
2021/06/13 10:00:35;;;;;;;2.67;2.20;;;25.00;44.10;;;;;;4959943;28;20201;-44
2021/06/13 10:03:01;;;;;;;4.40;2.58;;;25.00;44.10;;;;;;4971196;28;20232;-40
2021/06/13 10:05:28;;;;;;;2.65;2.20;;;25.00;44.30;;;;;;4961170;28;20202;-39
2021/06/13 10:07:54;;;;;;;4.22;2.80;;;25.00;44.20;;;;;;4952465;28;20235;-41
2021/06/13 10:10:20;;;;;;;2.33;2.13;;;25.00;43.90;;;;;;4971314;28;20216;-43
2021/06/13 10:12:47;;;;;;;2.63;2.30;;;25.00;44.20;;;;;;4972871;28;20284;-39
2021/06/13 10:15:13;;;;;;;2.45;2.25;;;25.00;44.10;;;;;;4954777;28;20228;-39
2021/06/13 10:17:40;;;;;;;2.40;2.20;;;25.00;44.20;;;;;;4952199;28;20315;-42
2021/06/13 10:20:06;;;;;;;2.88;2.10;;;25.10;43.80;;;;;;4966590;28;20208;-43
2021/06/13 10:22:33;;;;;;;3.03;2.50;;;25.10;43.70;;;;;;4954864;28;20232;-47
2021/06/13 10:24:59;;;;;;;2.90;2.65;;;25.10;41.50;;;;;;4954637;28;20293;-40
2021/06/13 10:27:26;;;;;;;3.72;2.58;;;25.00;40.10;;;;;;4952721;28;20825;-39
2021/06/13 10:29:53;;;;;;;3.53;2.33;;;25.10;41.10;;;;;;4965585;23;20655;-42
2021/06/13 10:32:22;;;;;;;6.40;2.60;;;25.10;41.30;;;;;;4935469;29;20220;-41
2021/06/13 10:34:50;;;;;;;6.03;2.78;;;25.10;39.90;;;;;;4952694;29;20572;-49
2021/06/13 10:37:16;;;;;;;2.97;2.10;;;25.10;40.10;;;;;;4937611;28;20221;-40
2021/06/13 10:39:43;;;;;;;7.40;2.80;;;25.10;41.70;;;;;;4940231;29;20208;-41
2021/06/13 10:42:10;;;;;;;4.50;2.10;;;25.10;41.30;;;;;;4934419;29;20391;-38
2021/06/13 10:44:36;;;;;;;8.93;3.00;;;25.10;40.30;;;;;;4933495;29;20212;-44
2021/06/13 10:47:03;;;;;;;6.03;2.95;;;25.10;41.50;;;;;;4932371;29;20228;-37
2021/06/13 10:49:29;;;;;;;3.22;2.55;;;24.80;36.00;;;;;;4932031;29;20212;-44
2021/06/13 10:51:58;;;;;;;3.75;2.40;;;24.30;31.50;;;;;;4931759;29;20240;-39
2021/06/13 10:54:24;;;;;;;3.00;2.30;;;24.00;32.00;;;;;;4935401;29;20237;-37
2021/06/13 10:56:51;;;;;;;3.25;2.67;;;23.80;30.20;;;;;;4934516;29;20221;-38
2021/06/13 10:59:18;;;;;;;3.40;2.72;;;23.70;30.40;;;;;;4934933;29;20198;-36
2021/06/13 11:01:44;;;;;;;4.70;2.40;;;23.50;30.50;;;;;;4933147;29;20206;-36
2021/06/13 11:04:13;;;;;;;2.50;1.88;;;23.90;33.10;;;;;;4933563;29;20534;-41
2021/06/13 11:06:39;;;;;;;2.05;1.90;;;24.20;34.50;;;;;;4933416;29;20686;-36
2021/06/13 11:09:06;;;;;;;2.25;1.80;;;24.40;34.50;;;;;;4934063;29;20528;-45
2021/06/13 11:11:33;;;;;;;2.13;1.92;;;24.60;35.10;;;;;;4932655;29;20228;-40
2021/06/13 11:13:59;;;;;;;3.22;2.00;;;24.70;35.60;;;;;;4935348;29;20206;-44
2021/06/13 11:16:26;;;;;;;1.88;1.60;;;24.70;36.30;;;;;;4932807;29;20221;-35
2021/06/13 11:18:52;;;;;;;2.72;1.95;;;24.80;36.80;;;;;;4935037;29;20201;-35
2021/06/13 11:21:18;;;;;;;2.00;1.90;;;24.80;37.00;;;;;;4935038;29;20205;-40
2021/06/13 11:23:46;;;;;;;2.67;2.25;;;24.80;37.10;;;;;;4934703;29;20226;-44
2021/06/13 11:26:12;;;;;;;2.53;1.88;;;24.80;37.20;;;;;;4932365;29;20230;-43
2021/06/13 11:28:41;;;;;;;3.95;1.65;;;24.80;37.40;;;;;;4933262;29;20304;-42
2021/06/13 11:31:08;;;;;;;2.35;1.77;;;24.90;37.60;;;;;;4938642;29;20216;-48
2021/06/13 11:33:34;;;;;;;3.75;1.98;;;24.90;37.90;;;;;;4939219;28;20208;-37
2021/06/13 11:36:01;;;;;;;2.05;1.70;;;24.90;38.70;;;;;;4933184;29;20218;-40
2021/06/13 11:38:27;;;;;;;2.00;1.70;;;24.90;38.20;;;;;;4933887;29;20206;-39
2021/06/13 11:40:54;;;;;;;2.22;1.95;;;24.90;38.40;;;;;;4932984;29;20205;-45
2021/06/13 11:43:20;;;;;;;3.00;1.80;;;24.90;38.70;;;;;;4934380;29;20332;-43
2021/06/13 11:45:47;;;;;;;2.60;1.75;;;24.90;38.90;;;;;;4933460;29;20333;-46
2021/06/13 11:48:13;;;;;;;2.00;1.90;;;24.90;38.90;;;;;;4930475;29;20217;-36
2021/06/13 11:50:39;;;;;;;2.38;1.65;;;24.90;38.90;;;;;;4934372;29;20224;-39
2021/06/13 11:53:12;;;;;;;1.98;1.77;;;24.90;38.90;;;;;;4926000;29;20217;-37
2021/06/13 11:55:38;;;;;;;2.03;1.85;;;24.90;38.90;;;;;;4933301;29;20214;-35
2021/06/13 11:58:04;;;;;;;1.90;1.70;;;24.90;38.90;;;;;;4932233;29;20221;-36
2021/06/13 12:00:30;;;;;;;2.10;1.90;;;24.90;38.90;;;;;;4921123;29;20206;-40
2021/06/13 12:02:57;;;;;;;1.83;1.73;;;24.90;38.90;;;;;;4933702;29;20339;-41
2021/06/13 12:05:23;;;;;;;2.03;1.83;;;24.90;39.20;;;;;;4931805;29;20638;-35
2021/06/13 12:07:50;;;;;;;2.47;1.80;;;24.90;39.20;;;;;;4933645;29;20230;-34
2021/06/13 12:10:16;;;;;;;1.77;1.60;;;24.90;39.20;;;;;;4930374;29;20206;-40
2021/06/13 12:12:43;;;;;;;1.73;1.63;;;24.90;39.40;;;;;;4930761;29;20286;-35
2021/06/13 12:15:09;;;;;;;1.80;1.70;;;24.90;39.50;;;;;;4933488;29;20277;-39
2021/06/13 12:17:36;;;;;;;2.05;1.63;;;25.00;40.10;;;;;;4933403;29;20236;-40
2021/06/13 12:20:03;;;;;;;2.65;1.60;;;25.00;39.70;;;;;;4933751;29;20292;-39
2021/06/13 12:22:32;;;;;;;1.80;1.70;;;24.90;39.70;;;;;;4933696;29;20232;-44
2021/06/13 12:27:43;;;;;;;2.10;1.90;;;25.00;40.00;;;;;;4931825;29;20407;-37
2021/06/13 12:30:10;;;;;;;2.03;1.50;;;25.00;39.90;;;;;;4933814;29;20221;-48
2021/06/13 12:32:37;;;;;;;2.65;2.05;;;25.00;40.00;;;;;;4932000;29;20293;-42
2021/06/13 12:35:03;;;;;;;3.40;1.90;;;25.00;39.00;;;;;;4930887;29;20205;-40
2021/06/13 12:37:29;;;;;;;1.95;1.77;;;25.00;39.40;;;;;;4932867;29;20660;-35
2021/06/13 12:39:56;;;;;;;1.83;1.60;;;25.00;39.90;;;;;;4932978;29;20524;-41
2021/06/13 12:42:22;;;;;;;1.90;1.60;;;25.00;39.90;;;;;;4930663;29;20285;-33